sensor_id;sensor_type;location;lat;lon;timestamp;temperature;humidity
38860;DHT22;24609;48.316;16.174;2023-05-23T00:01:54;14.20;99.90
38860;DHT22;24609;48.316;16.174;2023-05-23T00:04:19;14.10;99.90
38860;DHT22;24609;48.316;16.174;2023-05-23T00:06:45;13.90;99.90
38860;DHT22;24609;48.316;16.174;2023-05-23T00:09:12;13.80;99.90
38860;DHT22;24609;48.316;16.174;2023-05-23T00:11:39;13.60;99.90
38860;DHT22;24609;48.316;16.174;2023-05-23T00:14:15;13.60;99.90
38860;DHT22;24609;48.316;16.174;2023-05-23T00:16:41;13.60;99.90
38860;DHT22;24609;48.316;16.174;2023-05-23T00:19:09;13.60;99.90
38860;DHT22;24609;48.316;16.174;2023-05-23T00:21:35;13.60;99.90
38860;DHT22;24609;48.316;16.174;2023-05-23T00:24:01;13.60;99.90
38860;DHT22;24609;48.316;16.174;2023-05-23T00:26:27;13.50;99.90
38860;DHT22;24609;48.316;16.174;2023-05-23T00:28:56;13.60;99.90
38860;DHT22;24609;48.316;16.174;2023-05-23T00:31:22;13.60;99.90
38860;DHT22;24609;48.316;16.174;2023-05-23T00:33:48;13.60;99.90
38860;DHT22;24609;48.316;16.174;2023-05-23T00:36:13;13.40;99.90
38860;DHT22;24609;48.316;16.174;2023-05-23T00:38:39;13.30;99.90
38860;DHT22;24609;48.316;16.174;2023-05-23T00:41:05;13.20;99.90
38860;DHT22;24609;48.316;16.174;2023-05-23T00:43:31;13.20;99.90
38860;DHT22;24609;48.316;16.174;2023-05-23T00:45:57;13.20;99.90
38860;DHT22;24609;48.316;16.174;2023-05-23T00:48:24;13.10;99.90
38860;DHT22;24609;48.316;16.174;2023-05-23T00:50:51;13.10;99.90
38860;DHT22;24609;48.316;16.174;2023-05-23T00:53:17;13.20;99.90
38860;DHT22;24609;48.316;16.174;2023-05-23T00:55:44;13.20;99.90
38860;DHT22;24609;48.316;16.174;2023-05-23T00:58:10;13.30;99.90
38860;DHT22;24609;48.316;16.174;2023-05-23T01:00:37;13.30;99.90
38860;DHT22;24609;48.316;16.174;2023-05-23T01:03:03;13.40;99.90
38860;DHT22;24609;48.316;16.174;2023-05-23T01:05:29;13.20;99.90
38860;DHT22;24609;48.316;16.174;2023-05-23T01:07:55;13.10;99.90
38860;DHT22;24609;48.316;16.174;2023-05-23T01:10:26;13.00;99.90
38860;DHT22;24609;48.316;16.174;2023-05-23T01:18:23;13.00;99.90
38860;DHT22;24609;48.316;16.174;2023-05-23T01:21:06;12.90;99.90
38860;DHT22;24609;48.316;16.174;2023-05-23T01:24:12;12.90;99.90
38860;DHT22;24609;48.316;16.174;2023-05-23T01:27:07;12.80;99.90
38860;DHT22;24609;48.316;16.174;2023-05-23T01:29:38;12.90;99.90
38860;DHT22;24609;48.316;16.174;2023-05-23T01:32:09;12.90;99.90
38860;DHT22;24609;48.316;16.174;2023-05-23T01:34:36;12.90;99.90
38860;DHT22;24609;48.316;16.174;2023-05-23T01:37:07;12.80;99.90
38860;DHT22;24609;48.316;16.174;2023-05-23T01:39:34;12.70;99.90
38860;DHT22;24609;48.316;16.174;2023-05-23T01:42:00;12.70;99.90
38860;DHT22;24609;48.316;16.174;2023-05-23T01:44:26;12.60;99.90
38860;DHT22;24609;48.316;16.174;2023-05-23T01:46:51;12.60;99.90
38860;DHT22;24609;48.316;16.174;2023-05-23T01:49:18;12.70;99.90
38860;DHT22;24609;48.316;16.174;2023-05-23T01:51:45;12.60;99.90
38860;DHT22;24609;48.316;16.174;2023-05-23T01:54:11;12.50;99.90
38860;DHT22;24609;48.316;16.174;2023-05-23T01:56:37;12.40;99.90
38860;DHT22;24609;48.316;16.174;2023-05-23T01:59:04;12.40;99.90
38860;DHT22;24609;48.316;16.174;2023-05-23T02:01:30;12.40;99.90
38860;DHT22;24609;48.316;16.174;2023-05-23T02:03:55;12.30;99.90
38860;DHT22;24609;48.316;16.174;2023-05-23T02:06:21;12.30;99.90
38860;DHT22;24609;48.316;16.174;2023-05-23T02:08:47;12.30;99.90
38860;DHT22;24609;48.316;16.174;2023-05-23T02:11:12;12.30;99.90
38860;DHT22;24609;48.316;16.174;2023-05-23T02:13:39;12.30;99.90
38860;DHT22;24609;48.316;16.174;2023-05-23T02:16:04;12.30;99.90
38860;DHT22;24609;48.316;16.174;2023-05-23T02:18:30;12.20;99.90
38860;DHT22;24609;48.316;16.174;2023-05-23T02:20:56;12.00;99.90
38860;DHT22;24609;48.316;16.174;2023-05-23T02:23:21;11.90;99.90
38860;DHT22;24609;48.316;16.174;2023-05-23T02:25:47;11.90;99.90
38860;DHT22;24609;48.316;16.174;2023-05-23T02:28:13;11.90;99.90
38860;DHT22;24609;48.316;16.174;2023-05-23T02:30:39;11.90;99.90
38860;DHT22;24609;48.316;16.174;2023-05-23T02:33:05;11.90;99.90
38860;DHT22;24609;48.316;16.174;2023-05-23T02:35:32;11.80;99.90
38860;DHT22;24609;48.316;16.174;2023-05-23T02:37:58;11.80;99.90
38860;DHT22;24609;48.316;16.174;2023-05-23T02:40:24;11.70;99.90
38860;DHT22;24609;48.316;16.174;2023-05-23T02:42:50;11.70;99.90
38860;DHT22;24609;48.316;16.174;2023-05-23T02:45:16;11.60;99.90
38860;DHT22;24609;48.316;16.174;2023-05-23T02:47:42;11.70;99.90
38860;DHT22;24609;48.316;16.174;2023-05-23T02:50:08;11.60;99.90
38860;DHT22;24609;48.316;16.174;2023-05-23T02:52:34;11.60;99.90
38860;DHT22;24609;48.316;16.174;2023-05-23T02:55:00;11.70;99.90
38860;DHT22;24609;48.316;16.174;2023-05-23T02:57:26;11.60;99.90
38860;DHT22;24609;48.316;16.174;2023-05-23T02:59:51;11.60;99.90
38860;DHT22;24609;48.316;16.174;2023-05-23T03:02:17;11.50;99.90
38860;DHT22;24609;48.316;16.174;2023-05-23T03:04:43;11.60;99.90
38860;DHT22;24609;48.316;16.174;2023-05-23T03:07:09;11.60;99.90
38860;DHT22;24609;48.316;16.174;2023-05-23T03:09:36;11.50;99.90
38860;DHT22;24609;48.316;16.174;2023-05-23T03:12:02;11.60;99.90
38860;DHT22;24609;48.316;16.174;2023-05-23T03:14:28;11.70;99.90
38860;DHT22;24609;48.316;16.174;2023-05-23T03:16:54;11.70;99.90
38860;DHT22;24609;48.316;16.174;2023-05-23T03:19:20;11.70;99.90
38860;DHT22;24609;48.316;16.174;2023-05-23T03:21:45;11.70;99.90
38860;DHT22;24609;48.316;16.174;2023-05-23T03:24:11;11.80;99.90
38860;DHT22;24609;48.316;16.174;2023-05-23T03:26:36;11.80;99.90
38860;DHT22;24609;48.316;16.174;2023-05-23T03:29:02;11.80;99.90
38860;DHT22;24609;48.316;16.174;2023-05-23T03:31:28;11.80;99.90
38860;DHT22;24609;48.316;16.174;2023-05-23T03:33:53;11.90;99.90
38860;DHT22;24609;48.316;16.174;2023-05-23T03:36:19;11.90;99.90
38860;DHT22;24609;48.316;16.174;2023-05-23T03:38:46;11.90;99.90
38860;DHT22;24609;48.316;16.174;2023-05-23T03:41:11;12.00;99.90
38860;DHT22;24609;48.316;16.174;2023-05-23T03:43:37;11.90;99.90
38860;DHT22;24609;48.316;16.174;2023-05-23T03:46:03;12.00;99.90
38860;DHT22;24609;48.316;16.174;2023-05-23T03:48:28;12.00;99.90
38860;DHT22;24609;48.316;16.174;2023-05-23T03:50:54;12.10;99.90
38860;DHT22;24609;48.316;16.174;2023-05-23T03:53:20;12.10;99.90
38860;DHT22;24609;48.316;16.174;2023-05-23T03:55:46;12.20;99.90
38860;DHT22;24609;48.316;16.174;2023-05-23T03:58:11;12.30;99.90
38860;DHT22;24609;48.316;16.174;2023-05-23T04:00:37;12.40;99.90
38860;DHT22;24609;48.316;16.174;2023-05-23T04:03:03;12.50;99.90
38860;DHT22;24609;48.316;16.174;2023-05-23T04:05:29;12.60;99.90
38860;DHT22;24609;48.316;16.174;2023-05-23T04:07:54;12.70;99.90
38860;DHT22;24609;48.316;16.174;2023-05-23T04:10:21;12.80;99.90
38860;DHT22;24609;48.316;16.174;2023-05-23T04:12:47;13.00;99.90
38860;DHT22;24609;48.316;16.174;2023-05-23T04:15:12;13.10;99.90
38860;DHT22;24609;48.316;16.174;2023-05-23T04:17:38;13.30;99.90
38860;DHT22;24609;48.316;16.174;2023-05-23T04:20:07;13.30;99.90
38860;DHT22;24609;48.316;16.174;2023-05-23T04:22:37;13.40;99.90
38860;DHT22;24609;48.316;16.174;2023-05-23T04:25:03;13.50;99.90
38860;DHT22;24609;48.316;16.174;2023-05-23T04:27:29;13.70;99.90
38860;DHT22;24609;48.316;16.174;2023-05-23T04:29:55;13.80;99.90
38860;DHT22;24609;48.316;16.174;2023-05-23T04:32:22;14.00;99.90
38860;DHT22;24609;48.316;16.174;2023-05-23T04:34:48;14.10;99.90
38860;DHT22;24609;48.316;16.174;2023-05-23T04:37:14;14.30;99.90
38860;DHT22;24609;48.316;16.174;2023-05-23T04:39:41;14.50;99.90
38860;DHT22;24609;48.316;16.174;2023-05-23T04:42:07;14.60;99.90
38860;DHT22;24609;48.316;16.174;2023-05-23T04:44:33;14.90;99.90
38860;DHT22;24609;48.316;16.174;2023-05-23T04:47:01;15.10;99.90
38860;DHT22;24609;48.316;16.174;2023-05-23T04:49:27;15.30;99.90
38860;DHT22;24609;48.316;16.174;2023-05-23T04:51:53;15.70;99.90
38860;DHT22;24609;48.316;16.174;2023-05-23T04:54:19;16.10;99.90
38860;DHT22;24609;48.316;16.174;2023-05-23T04:56:45;16.50;99.90
38860;DHT22;24609;48.316;16.174;2023-05-23T04:59:11;16.80;99.90
38860;DHT22;24609;48.316;16.174;2023-05-23T05:01:37;17.10;99.90
38860;DHT22;24609;48.316;16.174;2023-05-23T05:04:05;16.90;99.90
38860;DHT22;24609;48.316;16.174;2023-05-23T05:06:31;16.80;99.90
38860;DHT22;24609;48.316;16.174;2023-05-23T05:08:57;17.00;99.90
38860;DHT22;24609;48.316;16.174;2023-05-23T05:11:23;17.00;99.90
38860;DHT22;24609;48.316;16.174;2023-05-23T05:13:48;17.30;99.90
38860;DHT22;24609;48.316;16.174;2023-05-23T05:16:14;17.70;99.90
38860;DHT22;24609;48.316;16.174;2023-05-23T05:18:41;17.80;53.70
38860;DHT22;24609;48.316;16.174;2023-05-23T05:21:06;17.80;99.90
38860;DHT22;24609;48.316;16.174;2023-05-23T05:23:32;17.70;99.90
38860;DHT22;24609;48.316;16.174;2023-05-23T05:25:58;17.50;99.90
38860;DHT22;24609;48.316;16.174;2023-05-23T05:28:25;17.70;99.90
38860;DHT22;24609;48.316;16.174;2023-05-23T05:30:50;18.00;99.90
38860;DHT22;24609;48.316;16.174;2023-05-23T05:33:20;18.60;99.90
38860;DHT22;24609;48.316;16.174;2023-05-23T05:35:48;18.90;99.90
38860;DHT22;24609;48.316;16.174;2023-05-23T05:38:15;19.20;99.90
38860;DHT22;24609;48.316;16.174;2023-05-23T05:40:41;19.50;99.90
38860;DHT22;24609;48.316;16.174;2023-05-23T05:43:07;19.90;99.90
38860;DHT22;24609;48.316;16.174;2023-05-23T05:45:33;20.20;99.90
38860;DHT22;24609;48.316;16.174;2023-05-23T05:47:58;20.70;99.90
38860;DHT22;24609;48.316;16.174;2023-05-23T05:50:24;20.60;99.90
38860;DHT22;24609;48.316;16.174;2023-05-23T05:52:50;20.60;99.90
38860;DHT22;24609;48.316;16.174;2023-05-23T05:55:15;20.30;99.90
38860;DHT22;24609;48.316;16.174;2023-05-23T05:57:41;20.20;99.90
38860;DHT22;24609;48.316;16.174;2023-05-23T06:00:12;19.70;99.90
38860;DHT22;24609;48.316;16.174;2023-05-23T06:02:40;20.30;99.90
38860;DHT22;24609;48.316;16.174;2023-05-23T06:05:13;20.90;99.90
38860;DHT22;24609;48.316;16.174;2023-05-23T06:07:41;21.30;99.90
38860;DHT22;24609;48.316;16.174;2023-05-23T06:10:07;22.30;99.90
38860;DHT22;24609;48.316;16.174;2023-05-23T06:12:34;23.00;99.90
38860;DHT22;24609;48.316;16.174;2023-05-23T06:15:00;22.40;99.90
38860;DHT22;24609;48.316;16.174;2023-05-23T06:17:26;23.10;99.90
38860;DHT22;24609;48.316;16.174;2023-05-23T06:19:52;24.10;99.90
38860;DHT22;24609;48.316;16.174;2023-05-23T06:22:17;24.30;99.90
38860;DHT22;24609;48.316;16.174;2023-05-23T06:24:43;24.10;99.90
38860;DHT22;24609;48.316;16.174;2023-05-23T06:27:09;24.20;99.90
38860;DHT22;24609;48.316;16.174;2023-05-23T06:29:34;24.10;99.90
38860;DHT22;24609;48.316;16.174;2023-05-23T06:32:01;23.30;99.90
38860;DHT22;24609;48.316;16.174;2023-05-23T06:34:27;24.00;99.90
38860;DHT22;24609;48.316;16.174;2023-05-23T06:36:53;23.40;99.90
38860;DHT22;24609;48.316;16.174;2023-05-23T06:39:19;23.10;99.90
38860;DHT22;24609;48.316;16.174;2023-05-23T06:41:46;23.60;99.90
38860;DHT22;24609;48.316;16.174;2023-05-23T06:44:11;24.60;99.90
38860;DHT22;24609;48.316;16.174;2023-05-23T06:46:37;25.60;99.90
38860;DHT22;24609;48.316;16.174;2023-05-23T06:49:03;24.90;99.90
38860;DHT22;24609;48.316;16.174;2023-05-23T06:51:29;24.20;99.90
38860;DHT22;24609;48.316;16.174;2023-05-23T06:53:54;23.60;99.90
38860;DHT22;24609;48.316;16.174;2023-05-23T06:56:23;22.70;99.90
38860;DHT22;24609;48.316;16.174;2023-05-23T06:58:48;22.60;99.90
38860;DHT22;24609;48.316;16.174;2023-05-23T07:01:14;22.40;99.90
38860;DHT22;24609;48.316;16.174;2023-05-23T07:03:40;22.00;99.90
38860;DHT22;24609;48.316;16.174;2023-05-23T07:06:07;22.30;99.90
38860;DHT22;24609;48.316;16.174;2023-05-23T07:08:33;23.20;99.90
38860;DHT22;24609;48.316;16.174;2023-05-23T07:10:59;22.70;99.90
38860;DHT22;24609;48.316;16.174;2023-05-23T07:13:24;22.60;99.90
38860;DHT22;24609;48.316;16.174;2023-05-23T07:15:50;23.50;99.90
38860;DHT22;24609;48.316;16.174;2023-05-23T07:18:16;22.80;99.90
38860;DHT22;24609;48.316;16.174;2023-05-23T07:20:41;22.90;99.90
38860;DHT22;24609;48.316;16.174;2023-05-23T07:23:07;22.70;99.90
38860;DHT22;24609;48.316;16.174;2023-05-23T07:25:33;22.70;99.90
38860;DHT22;24609;48.316;16.174;2023-05-23T07:27:58;23.50;99.90
38860;DHT22;24609;48.316;16.174;2023-05-23T07:30:24;23.90;99.90
38860;DHT22;24609;48.316;16.174;2023-05-23T07:32:50;24.40;99.90
38860;DHT22;24609;48.316;16.174;2023-05-23T07:35:17;24.30;99.90
38860;DHT22;24609;48.316;16.174;2023-05-23T07:37:43;24.50;99.90
38860;DHT22;24609;48.316;16.174;2023-05-23T07:40:09;24.40;99.90
38860;DHT22;24609;48.316;16.174;2023-05-23T07:42:35;24.50;99.90
38860;DHT22;24609;48.316;16.174;2023-05-23T07:45:02;24.30;99.90
38860;DHT22;24609;48.316;16.174;2023-05-23T07:47:28;23.50;99.90
38860;DHT22;24609;48.316;16.174;2023-05-23T07:49:53;23.90;99.90
38860;DHT22;24609;48.316;16.174;2023-05-23T07:52:19;24.90;99.90
38860;DHT22;24609;48.316;16.174;2023-05-23T07:54:45;25.70;99.90
38860;DHT22;24609;48.316;16.174;2023-05-23T07:57:11;25.80;99.90
38860;DHT22;24609;48.316;16.174;2023-05-23T07:59:37;27.00;99.90
38860;DHT22;24609;48.316;16.174;2023-05-23T08:02:03;27.60;99.90
38860;DHT22;24609;48.316;16.174;2023-05-23T08:04:29;28.40;99.90
38860;DHT22;24609;48.316;16.174;2023-05-23T08:06:55;28.50;97.70
38860;DHT22;24609;48.316;16.174;2023-05-23T08:09:22;29.40;96.80
38860;DHT22;24609;48.316;16.174;2023-05-23T08:11:48;29.50;96.00
38860;DHT22;24609;48.316;16.174;2023-05-23T08:14:13;29.40;94.10
38860;DHT22;24609;48.316;16.174;2023-05-23T08:16:39;28.80;95.90
38860;DHT22;24609;48.316;16.174;2023-05-23T08:19:05;29.10;93.00
38860;DHT22;24609;48.316;16.174;2023-05-23T08:21:30;30.40;93.10
38860;DHT22;24609;48.316;16.174;2023-05-23T08:23:57;30.60;92.80
38860;DHT22;24609;48.316;16.174;2023-05-23T08:26:22;32.60;90.50
38860;DHT22;24609;48.316;16.174;2023-05-23T08:28:48;33.60;82.70
38860;DHT22;24609;48.316;16.174;2023-05-23T08:31:14;31.10;81.40
38860;DHT22;24609;48.316;16.174;2023-05-23T08:33:39;33.30;78.60
38860;DHT22;24609;48.316;16.174;2023-05-23T08:36:05;33.70;72.70
38860;DHT22;24609;48.316;16.174;2023-05-23T08:38:31;33.40;73.70
38860;DHT22;24609;48.316;16.174;2023-05-23T08:40:59;34.50;73.50
38860;DHT22;24609;48.316;16.174;2023-05-23T08:43:25;34.90;67.20
38860;DHT22;24609;48.316;16.174;2023-05-23T08:45:51;34.70;67.50
38860;DHT22;24609;48.316;16.174;2023-05-23T08:48:19;34.00;66.00
38860;DHT22;24609;48.316;16.174;2023-05-23T08:50:46;34.40;70.20
38860;DHT22;24609;48.316;16.174;2023-05-23T08:53:16;34.80;67.40
38860;DHT22;24609;48.316;16.174;2023-05-23T08:55:49;34.30;62.10
38860;DHT22;24609;48.316;16.174;2023-05-23T08:58:19;33.50;63.00
38860;DHT22;24609;48.316;16.174;2023-05-23T09:00:47;35.10;61.60
38860;DHT22;24609;48.316;16.174;2023-05-23T09:03:14;35.70;60.10
38860;DHT22;24609;48.316;16.174;2023-05-23T09:05:41;34.90;63.70
38860;DHT22;24609;48.316;16.174;2023-05-23T09:08:07;35.50;61.50
38860;DHT22;24609;48.316;16.174;2023-05-23T09:10:32;33.50;59.40
38860;DHT22;24609;48.316;16.174;2023-05-23T09:12:58;34.80;60.90
38860;DHT22;24609;48.316;16.174;2023-05-23T09:15:24;35.00;59.30
38860;DHT22;24609;48.316;16.174;2023-05-23T09:17:51;36.00;58.60
38860;DHT22;24609;48.316;16.174;2023-05-23T09:20:17;36.70;57.40
38860;DHT22;24609;48.316;16.174;2023-05-23T09:22:47;35.80;55.70
38860;DHT22;24609;48.316;16.174;2023-05-23T09:25:13;36.50;56.40
38860;DHT22;24609;48.316;16.174;2023-05-23T09:27:39;35.50;55.00
38860;DHT22;24609;48.316;16.174;2023-05-23T09:30:09;36.10;53.60
38860;DHT22;24609;48.316;16.174;2023-05-23T09:32:35;36.80;53.60
38860;DHT22;24609;48.316;16.174;2023-05-23T09:35:05;38.10;51.30
38860;DHT22;24609;48.316;16.174;2023-05-23T09:37:36;35.70;51.80
38860;DHT22;24609;48.316;16.174;2023-05-23T09:40:11;36.50;53.60
38860;DHT22;24609;48.316;16.174;2023-05-23T09:42:45;35.70;52.60
38860;DHT22;24609;48.316;16.174;2023-05-23T09:45:12;35.60;53.60
38860;DHT22;24609;48.316;16.174;2023-05-23T09:47:38;33.90;53.10
38860;DHT22;24609;48.316;16.174;2023-05-23T09:50:04;34.30;56.30
38860;DHT22;24609;48.316;16.174;2023-05-23T09:52:35;35.40;55.00
38860;DHT22;24609;48.316;16.174;2023-05-23T09:55:02;37.10;51.20
38860;DHT22;24609;48.316;16.174;2023-05-23T09:57:29;37.70;51.00
38860;DHT22;24609;48.316;16.174;2023-05-23T09:59:58;37.80;51.10
38860;DHT22;24609;48.316;16.174;2023-05-23T10:08:04;37.50;47.50
38860;DHT22;24609;48.316;16.174;2023-05-23T10:10:32;35.90;50.00
38860;DHT22;24609;48.316;16.174;2023-05-23T10:13:04;35.80;52.60
38860;DHT22;24609;48.316;16.174;2023-05-23T10:15:35;36.50;50.30
38860;DHT22;24609;48.316;16.174;2023-05-23T10:18:15;36.00;51.10
38860;DHT22;24609;48.316;16.174;2023-05-23T10:20:46;36.90;51.20
38860;DHT22;24609;48.316;16.174;2023-05-23T10:23:14;37.90;47.70
38860;DHT22;24609;48.316;16.174;2023-05-23T10:25:42;39.50;47.50
38860;DHT22;24609;48.316;16.174;2023-05-23T10:28:08;41.00;44.40
38860;DHT22;24609;48.316;16.174;2023-05-23T10:30:34;42.30;43.40
38860;DHT22;24609;48.316;16.174;2023-05-23T10:33:01;42.40;41.70
38860;DHT22;24609;48.316;16.174;2023-05-23T10:38:09;42.20;39.80
38860;DHT22;24609;48.316;16.174;2023-05-23T10:41:00;43.10;40.90
38860;DHT22;24609;48.316;16.174;2023-05-23T10:43:41;43.70;37.90
38860;DHT22;24609;48.316;16.174;2023-05-23T10:46:11;44.40;38.30
38860;DHT22;24609;48.316;16.174;2023-05-23T10:48:41;43.20;37.80
38860;DHT22;24609;48.316;16.174;2023-05-23T10:51:08;40.90;38.50
38860;DHT22;24609;48.316;16.174;2023-05-23T10:53:43;37.30;44.10
38860;DHT22;24609;48.316;16.174;2023-05-23T10:56:10;33.30;49.20
38860;DHT22;24609;48.316;16.174;2023-05-23T10:58:43;30.90;54.70
38860;DHT22;24609;48.316;16.174;2023-05-23T11:01:12;32.10;54.40
38860;DHT22;24609;48.316;16.174;2023-05-23T11:06:38;35.10;48.90
38860;DHT22;24609;48.316;16.174;2023-05-23T11:09:11;37.80;46.80
38860;DHT22;24609;48.316;16.174;2023-05-23T11:17:16;34.30;48.90
38860;DHT22;24609;48.316;16.174;2023-05-23T11:20:06;32.50;52.20
38860;DHT22;24609;48.316;16.174;2023-05-23T11:22:34;31.70;52.60
38860;DHT22;24609;48.316;16.174;2023-05-23T11:25:05;30.50;54.80
38860;DHT22;24609;48.316;16.174;2023-05-23T11:27:36;29.60;56.90
38860;DHT22;24609;48.316;16.174;2023-05-23T11:30:17;29.20;58.40
38860;DHT22;24609;48.316;16.174;2023-05-23T11:32:51;30.10;57.00
38860;DHT22;24609;48.316;16.174;2023-05-23T11:35:17;34.50;49.60
38860;DHT22;24609;48.316;16.174;2023-05-23T11:37:43;36.00;47.20
38860;DHT22;24609;48.316;16.174;2023-05-23T11:40:31;35.90;46.90
38860;DHT22;24609;48.316;16.174;2023-05-23T11:42:59;36.20;47.30
38860;DHT22;24609;48.316;16.174;2023-05-23T11:45:26;35.70;47.20
38860;DHT22;24609;48.316;16.174;2023-05-23T11:47:52;36.20;48.00
38860;DHT22;24609;48.316;16.174;2023-05-23T11:50:18;37.80;45.60
38860;DHT22;24609;48.316;16.174;2023-05-23T11:52:47;39.80;42.80
38860;DHT22;24609;48.316;16.174;2023-05-23T11:55:19;41.50;40.30
38860;DHT22;24609;48.316;16.174;2023-05-23T11:57:49;39.00;39.00
38860;DHT22;24609;48.316;16.174;2023-05-23T12:00:16;37.70;41.80
38860;DHT22;24609;48.316;16.174;2023-05-23T12:02:44;38.40;43.30
38860;DHT22;24609;48.316;16.174;2023-05-23T12:05:12;39.90;39.30
38860;DHT22;24609;48.316;16.174;2023-05-23T12:07:41;40.30;40.50
38860;DHT22;24609;48.316;16.174;2023-05-23T12:10:10;40.50;41.30
38860;DHT22;24609;48.316;16.174;2023-05-23T12:12:37;40.70;41.30
38860;DHT22;24609;48.316;16.174;2023-05-23T12:15:05;39.60;40.20
38860;DHT22;24609;48.316;16.174;2023-05-23T12:17:31;37.70;42.10
38860;DHT22;24609;48.316;16.174;2023-05-23T12:19:57;36.00;45.00
38860;DHT22;24609;48.316;16.174;2023-05-23T12:22:23;34.20;48.70
38860;DHT22;24609;48.316;16.174;2023-05-23T12:24:52;32.30;52.70
38860;DHT22;24609;48.316;16.174;2023-05-23T12:27:26;31.10;53.50
38860;DHT22;24609;48.316;16.174;2023-05-23T12:32:32;29.40;57.30
38860;DHT22;24609;48.316;16.174;2023-05-23T12:34:58;29.00;58.80
38860;DHT22;24609;48.316;16.174;2023-05-23T12:37:23;28.90;59.00
38860;DHT22;24609;48.316;16.174;2023-05-23T12:39:50;29.10;58.70
38860;DHT22;24609;48.316;16.174;2023-05-23T12:42:15;30.10;58.00
38860;DHT22;24609;48.316;16.174;2023-05-23T12:44:41;33.50;54.60
38860;DHT22;24609;48.316;16.174;2023-05-23T12:47:11;38.10;48.60
38860;DHT22;24609;48.316;16.174;2023-05-23T12:49:37;39.10;43.00
38860;DHT22;24609;48.316;16.174;2023-05-23T12:52:03;40.00;43.20
38860;DHT22;24609;48.316;16.174;2023-05-23T12:54:29;40.40;42.70
38860;DHT22;24609;48.316;16.174;2023-05-23T12:56:54;38.70;43.80
38860;DHT22;24609;48.316;16.174;2023-05-23T12:59:20;36.20;46.10
38860;DHT22;24609;48.316;16.174;2023-05-23T13:01:46;34.30;49.90
38860;DHT22;24609;48.316;16.174;2023-05-23T13:04:12;31.60;51.10
38860;DHT22;24609;48.316;16.174;2023-05-23T13:06:37;29.60;54.20
38860;DHT22;24609;48.316;16.174;2023-05-23T13:09:03;28.10;58.30
38860;DHT22;24609;48.316;16.174;2023-05-23T13:11:29;27.70;62.00
38860;DHT22;24609;48.316;16.174;2023-05-23T13:13:56;27.30;64.30
38860;DHT22;24609;48.316;16.174;2023-05-23T13:16:22;26.80;68.90
38860;DHT22;24609;48.316;16.174;2023-05-23T13:18:48;26.50;71.70
38860;DHT22;24609;48.316;16.174;2023-05-23T13:21:13;26.40;72.30
38860;DHT22;24609;48.316;16.174;2023-05-23T13:23:39;26.20;74.10
38860;DHT22;24609;48.316;16.174;2023-05-23T13:26:06;25.60;77.90
38860;DHT22;24609;48.316;16.174;2023-05-23T13:28:32;25.00;83.60
38860;DHT22;24609;48.316;16.174;2023-05-23T13:30:58;24.60;88.50
38860;DHT22;24609;48.316;16.174;2023-05-23T13:33:24;24.40;91.60
38860;DHT22;24609;48.316;16.174;2023-05-23T13:35:50;23.50;99.90
38860;DHT22;24609;48.316;16.174;2023-05-23T13:38:17;21.90;99.90
38860;DHT22;24609;48.316;16.174;2023-05-23T13:40:43;21.00;99.90
38860;DHT22;24609;48.316;16.174;2023-05-23T13:43:09;20.90;99.90
38860;DHT22;24609;48.316;16.174;2023-05-23T13:45:35;21.00;99.90
38860;DHT22;24609;48.316;16.174;2023-05-23T13:48:01;21.00;99.90
38860;DHT22;24609;48.316;16.174;2023-05-23T13:50:26;21.00;99.90
38860;DHT22;24609;48.316;16.174;2023-05-23T13:52:52;20.90;99.90
38860;DHT22;24609;48.316;16.174;2023-05-23T13:55:18;20.90;99.90
38860;DHT22;24609;48.316;16.174;2023-05-23T13:57:44;20.70;99.90
38860;DHT22;24609;48.316;16.174;2023-05-23T14:00:11;20.50;99.90
38860;DHT22;24609;48.316;16.174;2023-05-23T14:02:36;20.20;99.90
38860;DHT22;24609;48.316;16.174;2023-05-23T14:05:02;20.20;99.90
38860;DHT22;24609;48.316;16.174;2023-05-23T14:07:29;19.90;99.90
38860;DHT22;24609;48.316;16.174;2023-05-23T14:09:55;19.70;99.90
38860;DHT22;24609;48.316;16.174;2023-05-23T14:12:22;19.90;99.90
38860;DHT22;24609;48.316;16.174;2023-05-23T14:14:47;20.30;99.90
38860;DHT22;24609;48.316;16.174;2023-05-23T14:17:16;20.60;99.90
38860;DHT22;24609;48.316;16.174;2023-05-23T14:19:42;21.00;99.90
38860;DHT22;24609;48.316;16.174;2023-05-23T14:22:08;21.50;99.90
38860;DHT22;24609;48.316;16.174;2023-05-23T14:24:33;21.90;99.90
38860;DHT22;24609;48.316;16.174;2023-05-23T14:26:59;22.20;99.90
38860;DHT22;24609;48.316;16.174;2023-05-23T14:29:26;22.50;99.90
38860;DHT22;24609;48.316;16.174;2023-05-23T14:31:52;22.50;99.90
38860;DHT22;24609;48.316;16.174;2023-05-23T14:34:18;22.30;99.90
38860;DHT22;24609;48.316;16.174;2023-05-23T14:36:43;22.20;99.90
38860;DHT22;24609;48.316;16.174;2023-05-23T14:39:09;22.10;99.90
38860;DHT22;24609;48.316;16.174;2023-05-23T14:41:35;21.80;99.90
38860;DHT22;24609;48.316;16.174;2023-05-23T14:44:02;21.50;99.90
38860;DHT22;24609;48.316;16.174;2023-05-23T14:46:28;21.40;99.90
38860;DHT22;24609;48.316;16.174;2023-05-23T14:48:54;21.30;99.90
38860;DHT22;24609;48.316;16.174;2023-05-23T14:51:20;21.10;99.90
38860;DHT22;24609;48.316;16.174;2023-05-23T14:53:45;20.80;99.90
38860;DHT22;24609;48.316;16.174;2023-05-23T14:56:11;20.50;99.90
38860;DHT22;24609;48.316;16.174;2023-05-23T14:58:37;20.30;99.90
38860;DHT22;24609;48.316;16.174;2023-05-23T15:01:04;20.20;99.90
38860;DHT22;24609;48.316;16.174;2023-05-23T15:03:30;20.20;99.90
38860;DHT22;24609;48.316;16.174;2023-05-23T15:05:56;20.00;99.90
38860;DHT22;24609;48.316;16.174;2023-05-23T15:08:22;19.80;99.90
38860;DHT22;24609;48.316;16.174;2023-05-23T15:10:47;19.40;99.90
38860;DHT22;24609;48.316;16.174;2023-05-23T15:13:13;19.30;99.90
38860;DHT22;24609;48.316;16.174;2023-05-23T15:15:39;19.20;99.90
38860;DHT22;24609;48.316;16.174;2023-05-23T15:18:08;19.10;99.90
38860;DHT22;24609;48.316;16.174;2023-05-23T15:20:35;19.00;99.90
38860;DHT22;24609;48.316;16.174;2023-05-23T15:23:03;18.90;99.90
38860;DHT22;24609;48.316;16.174;2023-05-23T15:25:28;18.80;99.90
38860;DHT22;24609;48.316;16.174;2023-05-23T15:27:55;18.80;99.90
38860;DHT22;24609;48.316;16.174;2023-05-23T15:30:21;18.80;99.90
38860;DHT22;24609;48.316;16.174;2023-05-23T15:32:47;18.70;99.90
38860;DHT22;24609;48.316;16.174;2023-05-23T15:35:13;18.60;99.90
38860;DHT22;24609;48.316;16.174;2023-05-23T15:37:40;18.60;99.90
38860;DHT22;24609;48.316;16.174;2023-05-23T15:40:06;19.00;99.90